Time;durP1;ratioP1;P1;durP2;ratioP2;P2;SDS_P1;SDS_P2;PMS_P1;PMS_P2;Temp;Humidity;BMP_temperature;BMP_pressure;BME280_temperature;BME280_humidity;BME280_pressure;Samples;Min_cycle;Max_cycle;Signal;HPM_P1;HPM_P2
2023/01/29 00:02:11;;;;;;;2.47;2.30;;;;;;;;;;5018657;28;20227;-90
2023/01/29 00:04:39;;;;;;;3.33;2.47;;;;;;;;;;5018329;28;20238;-90
2023/01/29 00:07:08;;;;;;;1.27;1.20;;;;;;;;;;5036234;28;20206;-90
2023/01/29 00:09:38;;;;;;;3.53;2.90;;;;;;;;;;5036201;28;20225;-90
2023/01/29 00:12:07;;;;;;;2.73;2.10;;;;;;;;;;5035517;28;20262;-89
2023/01/29 00:14:36;;;;;;;2.37;2.20;;;;;;;;;;5036180;28;20199;-89
2023/01/29 00:17:04;;;;;;;5.13;2.60;;;;;;;;;;5018782;28;20249;-90
2023/01/29 00:19:33;;;;;;;1.90;1.80;;;;;;;;;;5018934;28;20199;-90
2023/01/29 00:22:01;;;;;;;3.90;3.50;;;;;;;;;;5017420;28;20210;-90
2023/01/29 00:24:30;;;;;;;1.20;1.20;;;;;;;;;;5018223;28;20233;-89
2023/01/29 00:27:00;;;;;;;4.27;3.87;;;;;;;;;;5018712;28;20198;-90
2023/01/29 00:29:28;;;;;;;2.50;2.30;;;;;;;;;;5035997;28;20206;-89
2023/01/29 00:31:56;;;;;;;3.50;3.20;;;;;;;;;;5034929;28;20241;-90
2023/01/29 00:34:25;;;;;;;3.50;3.20;;;;;;;;;;5018539;28;20198;-90
2023/01/29 00:37:03;;;;;;;3.17;2.87;;;;;;;;;;5018035;28;20210;-89
2023/01/29 00:39:37;;;;;;;1.63;1.53;;;;;;;;;;5035420;28;20206;-89
2023/01/29 00:45:02;;;;;;;1.20;1.20;;;;;;;;;;5035630;28;20225;-89
2023/01/29 00:47:32;;;;;;;0.93;0.93;;;;;;;;;;5017748;28;20203;-89
2023/01/29 00:50:00;;;;;;;2.73;1.33;;;;;;;;;;5017747;28;20200;-90
2023/01/29 00:52:29;;;;;;;1.97;1.73;;;;;;;;;;5018259;28;20202;-90
2023/01/29 00:54:58;;;;;;;0.97;0.97;;;;;;;;;;5017854;28;20199;-90
2023/01/29 00:57:29;;;;;;;8.40;1.47;;;;;;;;;;5017779;28;20218;-89
2023/01/29 00:59:58;;;;;;;0.70;0.70;;;;;;;;;;5017974;28;20245;-89
2023/01/29 01:05:16;;;;;;;0.90;0.90;;;;;;;;;;5017710;28;20269;-90
2023/01/29 01:07:46;;;;;;;0.70;0.70;;;;;;;;;;5017387;28;20206;-89
2023/01/29 01:10:20;;;;;;;1.67;1.57;;;;;;;;;;5017896;28;20191;-90
2023/01/29 01:12:52;;;;;;;1.17;1.17;;;;;;;;;;5017756;28;20209;-90
2023/01/29 01:15:21;;;;;;;2.20;2.10;;;;;;;;;;5017776;28;20205;-90
2023/01/29 01:17:52;;;;;;;1.27;1.20;;;;;;;;;;5034920;28;20206;-90
2023/01/29 01:20:21;;;;;;;2.80;2.60;;;;;;;;;;5017311;28;20265;-87
2023/01/29 01:22:49;;;;;;;2.03;1.83;;;;;;;;;;5017217;28;20226;-88
2023/01/29 01:25:18;;;;;;;2.50;1.50;;;;;;;;;;5017664;28;20269;-89
2023/01/29 01:27:46;;;;;;;1.60;1.40;;;;;;;;;;5034807;28;20222;-88
2023/01/29 01:30:16;;;;;;;2.20;2.00;;;;;;;;;;5017278;28;20213;-89
2023/01/29 01:32:45;;;;;;;1.80;1.70;;;;;;;;;;5017244;28;20297;-89
2023/01/29 01:35:14;;;;;;;0.83;0.83;;;;;;;;;;5034525;28;20206;-89
2023/01/29 01:37:43;;;;;;;1.97;1.83;;;;;;;;;;5017188;28;20207;-90
2023/01/29 01:40:16;;;;;;;0.80;0.80;;;;;;;;;;5034708;28;20198;-89
2023/01/29 01:42:45;;;;;;;1.07;1.07;;;;;;;;;;5034503;28;20201;-90
2023/01/29 01:45:20;;;;;;;1.67;1.57;;;;;;;;;;5017147;28;20210;-90
2023/01/29 01:47:55;;;;;;;1.10;1.10;;;;;;;;;;5017381;28;20206;-90
2023/01/29 01:50:26;;;;;;;2.00;1.70;;;;;;;;;;5035050;28;20256;-89
2023/01/29 01:52:57;;;;;;;1.47;1.37;;;;;;;;;;5016709;28;20237;-89
2023/01/29 01:55:28;;;;;;;4.13;2.93;;;;;;;;;;5034271;28;20249;-90
2023/01/29 01:57:59;;;;;;;1.97;1.87;;;;;;;;;;5034447;28;20198;-89
2023/01/29 02:00:29;;;;;;;1.37;1.37;;;;;;;;;;5017184;28;20226;-90
2023/01/29 02:11:19;;;;;;;1.97;1.87;;;;;;;;;;5016591;28;20203;-89
2023/01/29 02:13:52;;;;;;;1.90;1.40;;;;;;;;;;5016705;28;20199;-89
2023/01/29 02:16:23;;;;;;;3.07;2.10;;;;;;;;;;5016814;28;20195;-90
2023/01/29 02:18:51;;;;;;;2.03;1.90;;;;;;;;;;5035297;28;20198;-89
2023/01/29 02:21:37;;;;;;;1.00;1.00;;;;;;;;;;5018080;28;20203;-88
2023/01/29 02:24:29;;;;;;;1.33;1.30;;;;;;;;;;5016713;28;20202;-90
2023/01/29 02:27:03;;;;;;;1.10;1.10;;;;;;;;;;5033786;28;20226;-89
2023/01/29 02:29:39;;;;;;;2.40;2.00;;;;;;;;;;5016962;28;20487;-90
2023/01/29 02:32:18;;;;;;;1.20;1.20;;;;;;;;;;5033679;28;20199;-89
2023/01/29 02:37:39;;;;;;;1.67;1.57;;;;;;;;;;5016229;28;20207;-90
2023/01/29 02:40:14;;;;;;;1.27;1.27;;;;;;;;;;5016568;28;20206;-90
2023/01/29 02:42:47;;;;;;;0.93;0.93;;;;;;;;;;5016544;28;20202;-90
2023/01/29 02:45:19;;;;;;;1.73;1.63;;;;;;;;;;5016544;28;20282;-89
2023/01/29 02:47:49;;;;;;;0.83;0.83;;;;;;;;;;5019984;28;20206;-89
2023/01/29 02:50:20;;;;;;;0.80;0.80;;;;;;;;;;5037846;28;20201;-90
2023/01/29 02:52:53;;;;;;;1.73;1.63;;;;;;;;;;5020099;28;20241;-90
2023/01/29 02:55:24;;;;;;;1.17;1.17;;;;;;;;;;5020230;28;20195;-89
2023/01/29 02:57:55;;;;;;;1.23;1.23;;;;;;;;;;5020257;28;20193;-90
2023/01/29 03:00:27;;;;;;;2.27;1.27;;;;;;;;;;5037546;28;20199;-89
2023/01/29 03:02:57;;;;;;;2.33;1.53;;;;;;;;;;5019898;28;20215;-90
2023/01/29 03:05:29;;;;;;;2.90;2.70;;;;;;;;;;5037304;28;20261;-90
2023/01/29 03:08:00;;;;;;;5.63;1.73;;;;;;;;;;5019452;28;20191;-91
2023/01/29 03:10:32;;;;;;;1.10;1.10;;;;;;;;;;5037343;28;20198;-90
2023/01/29 03:13:02;;;;;;;1.70;1.63;;;;;;;;;;5020298;28;20214;-89
2023/01/29 03:15:37;;;;;;;3.23;1.47;;;;;;;;;;5037354;28;20182;-89
2023/01/29 03:18:08;;;;;;;1.87;1.77;;;;;;;;;;5036972;28;20194;-90
2023/01/29 03:20:47;;;;;;;1.83;1.63;;;;;;;;;;5019721;28;20206;-90
2023/01/29 03:23:22;;;;;;;2.30;2.20;;;;;;;;;;5036798;28;20214;-89
2023/01/29 03:34:22;;;;;;;1.83;1.73;;;;;;;;;;5019607;28;20203;-90
2023/01/29 03:36:54;;;;;;;0.70;0.70;;;;;;;;;;5019349;28;20195;-90
2023/01/29 03:39:26;;;;;;;2.13;1.80;;;;;;;;;;5018997;28;20210;-90
2023/01/29 03:41:57;;;;;;;1.03;1.03;;;;;;;;;;5019131;28;20198;-90
2023/01/29 03:44:31;;;;;;;1.23;1.23;;;;;;;;;;5036690;28;20210;-89
2023/01/29 03:47:06;;;;;;;3.13;1.27;;;;;;;;;;5018945;28;20231;-90
2023/01/29 03:49:44;;;;;;;1.80;1.17;;;;;;;;;;5019197;28;20206;-90
2023/01/29 03:52:17;;;;;;;0.90;0.90;;;;;;;;;;5019403;28;20203;-89
2023/01/29 03:54:50;;;;;;;10.10;6.90;;;;;;;;;;5018754;28;20202;-89
2023/01/29 03:57:22;;;;;;;3.67;3.37;;;;;;;;;;5036749;28;20230;-90
2023/01/29 03:59:54;;;;;;;4.93;4.47;;;;;;;;;;5018867;28;20207;-90
2023/01/29 04:02:27;;;;;;;8.50;6.47;;;;;;;;;;5018837;28;20261;-90
2023/01/29 04:04:58;;;;;;;6.63;6.03;;;;;;;;;;5034806;28;20242;-89
2023/01/29 04:07:28;;;;;;;8.27;7.00;;;;;;;;;;5019014;28;20206;-90
2023/01/29 04:09:58;;;;;;;7.83;7.03;;;;;;;;;;5034996;28;20290;-89
2023/01/29 04:12:29;;;;;;;3.00;2.80;;;;;;;;;;5018749;28;20195;-90
2023/01/29 04:14:59;;;;;;;6.33;3.57;;;;;;;;;;5036066;28;20199;-90
2023/01/29 04:17:33;;;;;;;1.03;1.03;;;;;;;;;;5035974;28;20210;-90
2023/01/29 04:20:02;;;;;;;2.10;1.73;;;;;;;;;;5018396;28;20258;-90
2023/01/29 04:22:32;;;;;;;2.33;2.13;;;;;;;;;;5018654;28;20214;-90
2023/01/29 04:25:01;;;;;;;3.10;2.70;;;;;;;;;;5018430;28;20201;-89
2023/01/29 04:27:38;;;;;;;3.73;3.40;;;;;;;;;;5027638;28;20250;-90
2023/01/29 04:30:17;;;;;;;2.23;2.13;;;;;;;;;;5035861;28;20206;-90
2023/01/29 04:32:54;;;;;;;2.77;1.87;;;;;;;;;;5018127;28;20201;-90
2023/01/29 04:35:27;;;;;;;1.13;1.13;;;;;;;;;;5018025;28;20206;-89
2023/01/29 04:38:00;;;;;;;1.83;1.73;;;;;;;;;;5018435;28;20203;-90
2023/01/29 04:40:34;;;;;;;2.07;1.87;;;;;;;;;;5018140;28;20298;-90
2023/01/29 04:43:04;;;;;;;4.60;4.20;;;;;;;;;;5035355;28;20199;-90
2023/01/29 04:45:36;;;;;;;2.23;2.10;;;;;;;;;;5018097;28;20198;-89
2023/01/29 04:48:11;;;;;;;2.00;1.87;;;;;;;;;;5035618;28;20226;-89
2023/01/29 04:50:41;;;;;;;2.23;2.13;;;;;;;;;;5017820;28;20202;-90
2023/01/29 04:53:13;;;;;;;5.37;4.30;;;;;;;;;;5035475;28;20205;-90
2023/01/29 04:55:43;;;;;;;4.27;3.43;;;;;;;;;;5017360;28;20253;-90
2023/01/29 04:58:14;;;;;;;4.67;4.23;;;;;;;;;;5017518;28;20213;-90
2023/01/29 05:00:44;;;;;;;1.13;1.13;;;;;;;;;;5017702;28;20210;-90
2023/01/29 05:03:15;;;;;;;2.20;2.03;;;;;;;;;;5017664;28;20242;-89
2023/01/29 05:05:45;;;;;;;3.90;3.17;;;;;;;;;;5017197;28;20234;-90
2023/01/29 05:08:16;;;;;;;1.47;1.37;;;;;;;;;;5016934;28;20194;-89
2023/01/29 05:10:45;;;;;;;2.03;1.93;;;;;;;;;;5033839;28;20234;-91
2023/01/29 05:13:15;;;;;;;2.73;2.53;;;;;;;;;;5017736;28;20211;-89
2023/01/29 05:15:45;;;;;;;14.40;9.77;;;;;;;;;;5034690;28;20217;-90
2023/01/29 05:18:15;;;;;;;11.73;9.17;;;;;;;;;;5034895;28;20199;-89
2023/01/29 05:20:44;;;;;;;7.47;6.70;;;;;;;;;;5016983;28;20206;-89
2023/01/29 05:23:16;;;;;;;6.67;6.17;;;;;;;;;;5017491;28;20202;-90
2023/01/29 05:25:45;;;;;;;7.10;5.57;;;;;;;;;;5033957;28;20230;-90
2023/01/29 05:28:15;;;;;;;14.53;9.67;;;;;;;;;;5034865;28;20195;-90
2023/01/29 05:30:44;;;;;;;15.33;9.80;;;;;;;;;;5017563;28;20206;-89
2023/01/29 05:33:14;;;;;;;0.90;0.90;;;;;;;;;;5034048;28;20261;-90
2023/01/29 05:35:44;;;;;;;2.63;1.87;;;;;;;;;;5017266;28;20207;-90
2023/01/29 05:38:12;;;;;;;1.70;1.20;;;;;;;;;;5017033;28;20254;-90
2023/01/29 05:40:41;;;;;;;1.73;1.63;;;;;;;;;;5016792;28;20195;-90
2023/01/29 05:43:14;;;;;;;7.33;5.03;;;;;;;;;;5016636;28;20225;-89
2023/01/29 05:45:43;;;;;;;2.93;2.77;;;;;;;;;;5016762;28;20220;-90
2023/01/29 05:48:11;;;;;;;2.63;2.37;;;;;;;;;;5016942;28;20223;-90
2023/01/29 05:50:39;;;;;;;2.73;2.53;;;;;;;;;;5033709;28;20203;-90
2023/01/29 05:53:09;;;;;;;7.90;4.97;;;;;;;;;;5016785;28;20211;-90
2023/01/29 05:55:38;;;;;;;3.93;3.23;;;;;;;;;;5017084;28;20199;-90
2023/01/29 05:58:06;;;;;;;6.47;4.63;;;;;;;;;;5016718;28;20265;-89
2023/01/29 06:00:35;;;;;;;10.03;7.07;;;;;;;;;;5034348;28;20330;-90
2023/01/29 06:03:03;;;;;;;8.83;4.63;;;;;;;;;;5016872;28;20219;-89
2023/01/29 06:05:32;;;;;;;13.17;10.37;;;;;;;;;;5015974;28;20242;-91
2023/01/29 06:08:00;;;;;;;3.67;3.37;;;;;;;;;;5015981;28;20215;-90
2023/01/29 06:10:30;;;;;;;9.93;7.23;;;;;;;;;;5033059;28;20195;-90
2023/01/29 06:12:58;;;;;;;11.17;7.70;;;;;;;;;;5033295;28;20285;-90
2023/01/29 06:15:27;;;;;;;6.23;4.23;;;;;;;;;;5033486;28;20203;-90
2023/01/29 06:17:55;;;;;;;7.73;6.33;;;;;;;;;;5033233;28;20191;-89
2023/01/29 06:20:24;;;;;;;6.07;5.50;;;;;;;;;;5016428;28;20203;-90
2023/01/29 06:22:52;;;;;;;9.23;6.20;;;;;;;;;;5019350;28;20203;-90
2023/01/29 06:25:20;;;;;;;6.73;4.07;;;;;;;;;;5019333;28;20244;-90
2023/01/29 06:27:52;;;;;;;10.97;7.77;;;;;;;;;;5036463;28;20218;-90
2023/01/29 06:30:20;;;;;;;6.73;5.10;;;;;;;;;;5037156;28;20206;-90
2023/01/29 06:32:49;;;;;;;5.60;5.17;;;;;;;;;;5019247;28;20203;-90
2023/01/29 06:35:17;;;;;;;6.13;4.50;;;;;;;;;;5018794;28;20202;-90
2023/01/29 06:37:46;;;;;;;6.17;3.53;;;;;;;;;;5018999;28;20195;-91
2023/01/29 06:40:14;;;;;;;6.37;5.67;;;;;;;;;;5018431;28;20227;-90
2023/01/29 06:42:43;;;;;;;8.43;5.83;;;;;;;;;;5018647;28;20209;-90
2023/01/29 06:45:15;;;;;;;13.57;10.53;;;;;;;;;;5036196;28;20203;-90
2023/01/29 06:47:43;;;;;;;10.37;6.30;;;;;;;;;;5035906;28;20214;-90
2023/01/29 06:50:12;;;;;;;6.37;5.07;;;;;;;;;;5018932;28;20221;-90
2023/01/29 06:52:41;;;;;;;7.00;3.00;;;;;;;;;;5018865;28;20203;-91
2023/01/29 06:55:10;;;;;;;3.57;3.27;;;;;;;;;;5018738;28;20199;-90
2023/01/29 06:57:38;;;;;;;6.47;4.57;;;;;;;;;;5036355;28;20195;-90
2023/01/29 07:00:08;;;;;;;4.23;3.17;;;;;;;;;;5018706;28;20203;-90
2023/01/29 07:02:38;;;;;;;5.03;4.00;;;;;;;;;;5018670;28;20229;-90
2023/01/29 07:05:07;;;;;;;2.80;2.60;;;;;;;;;;4979364;28;1119491;-89
2023/01/29 07:07:36;;;;;;;7.20;4.40;;;;;;;;;;5019561;28;20221;-90
2023/01/29 07:10:05;;;;;;;9.97;5.33;;;;;;;;;;5036307;28;20210;-90
2023/01/29 07:12:33;;;;;;;8.83;7.10;;;;;;;;;;5019670;28;20191;-90
2023/01/29 07:15:02;;;;;;;5.93;4.70;;;;;;;;;;5019748;28;20223;-90
2023/01/29 07:17:30;;;;;;;4.37;3.73;;;;;;;;;;5036910;28;20191;-90
2023/01/29 07:20:00;;;;;;;5.13;4.57;;;;;;;;;;5019601;28;20214;-91
2023/01/29 07:22:29;;;;;;;4.03;3.20;;;;;;;;;;5036685;28;20208;-91
2023/01/29 07:24:57;;;;;;;5.83;3.83;;;;;;;;;;5036757;28;20230;-91
2023/01/29 07:27:25;;;;;;;11.40;6.63;;;;;;;;;;5019291;28;20226;-90
2023/01/29 07:29:54;;;;;;;6.80;3.40;;;;;;;;;;5036867;28;20214;-90
2023/01/29 07:32:22;;;;;;;6.03;3.23;;;;;;;;;;5018912;28;20202;-90
2023/01/29 07:34:51;;;;;;;11.77;5.03;;;;;;;;;;5036609;28;20219;-90
2023/01/29 07:37:20;;;;;;;12.10;7.63;;;;;;;;;;5035762;28;20203;-90
2023/01/29 07:39:49;;;;;;;7.57;4.97;;;;;;;;;;5019231;28;20238;-91
2023/01/29 07:42:17;;;;;;;19.50;9.27;;;;;;;;;;5036986;28;20199;-90
2023/01/29 07:44:46;;;;;;;11.40;7.27;;;;;;;;;;5019704;28;20195;-90
2023/01/29 07:47:14;;;;;;;13.27;7.97;;;;;;;;;;5018645;28;20203;-90
2023/01/29 07:49:44;;;;;;;18.23;9.97;;;;;;;;;;5018908;28;20209;-90
2023/01/29 07:52:12;;;;;;;10.23;6.90;;;;;;;;;;5036270;28;20226;-90
2023/01/29 07:54:42;;;;;;;8.33;5.90;;;;;;;;;;5036683;28;20203;-90
2023/01/29 07:57:11;;;;;;;8.53;3.20;;;;;;;;;;5035060;28;20207;-90
2023/01/29 07:59:39;;;;;;;6.50;3.73;;;;;;;;;;5036367;28;20206;-89
2023/01/29 08:02:09;;;;;;;7.43;4.83;;;;;;;;;;5018217;28;20219;-90
2023/01/29 08:04:37;;;;;;;5.23;3.00;;;;;;;;;;5035793;28;20199;-90
2023/01/29 08:07:08;;;;;;;9.93;4.80;;;;;;;;;;5018463;28;20335;-90
2023/01/29 08:09:36;;;;;;;11.47;7.87;;;;;;;;;;5018462;28;20226;-91
2023/01/29 08:12:06;;;;;;;6.77;4.87;;;;;;;;;;5018412;28;20253;-91
2023/01/29 08:14:35;;;;;;;4.57;2.90;;;;;;;;;;5034967;28;20205;-90
2023/01/29 08:17:03;;;;;;;5.73;4.17;;;;;;;;;;5018142;28;20203;-90
2023/01/29 08:19:31;;;;;;;1.70;1.60;;;;;;;;;;5027298;28;20203;-90
2023/01/29 08:22:00;;;;;;;2.37;2.27;;;;;;;;;;5018257;28;20222;-90
2023/01/29 08:24:28;;;;;;;11.67;7.23;;;;;;;;;;5035683;28;20187;-90
2023/01/29 08:27:18;;;;;;;7.00;4.60;;;;;;;;;;5017813;28;20209;-90
2023/01/29 08:29:46;;;;;;;8.60;5.10;;;;;;;;;;5035221;28;20219;-90
2023/01/29 08:32:15;;;;;;;5.77;3.00;;;;;;;;;;5018062;28;20199;-91
2023/01/29 08:34:43;;;;;;;8.83;4.57;;;;;;;;;;5017628;28;20265;-90
2023/01/29 08:37:12;;;;;;;7.80;4.10;;;;;;;;;;5035433;28;20286;-90
2023/01/29 08:39:40;;;;;;;4.40;3.40;;;;;;;;;;5018059;28;20233;-90
2023/01/29 08:42:09;;;;;;;6.73;4.77;;;;;;;;;;5017487;28;20207;-89
2023/01/29 08:44:39;;;;;;;10.30;5.67;;;;;;;;;;5034526;28;20203;-90
2023/01/29 08:47:08;;;;;;;9.70;5.67;;;;;;;;;;5034989;28;20195;-91
2023/01/29 08:49:36;;;;;;;5.03;3.73;;;;;;;;;;5034323;28;20284;-90
2023/01/29 08:52:05;;;;;;;5.43;2.63;;;;;;;;;;5017321;28;20198;-89
2023/01/29 08:54:33;;;;;;;5.23;3.43;;;;;;;;;;5018009;28;20210;-91
2023/01/29 08:57:01;;;;;;;5.80;3.63;;;;;;;;;;5017193;28;20207;-90
2023/01/29 08:59:30;;;;;;;7.13;4.90;;;;;;;;;;5017749;28;20294;-90
2023/01/29 09:02:00;;;;;;;7.80;3.20;;;;;;;;;;5017275;28;20260;-90
2023/01/29 09:04:28;;;;;;;7.20;3.77;;;;;;;;;;5035299;28;20203;-91
2023/01/29 09:06:56;;;;;;;2.60;2.40;;;;;;;;;;5016416;28;20235;-90
2023/01/29 09:09:25;;;;;;;4.43;2.60;;;;;;;;;;5017008;28;20257;-90
2023/01/29 09:11:53;;;;;;;11.23;6.73;;;;;;;;;;5034792;28;20203;-90
2023/01/29 09:14:22;;;;;;;0.70;0.70;;;;;;;;;;5035014;28;20194;-90
2023/01/29 09:16:50;;;;;;;8.63;6.47;;;;;;;;;;5033960;28;20203;-90
2023/01/29 09:19:20;;;;;;;7.57;4.53;;;;;;;;;;5034437;28;20250;-89
2023/01/29 09:21:49;;;;;;;2.60;2.40;;;;;;;;;;5016883;28;20253;-90
2023/01/29 09:24:17;;;;;;;3.57;2.93;;;;;;;;;;5017408;28;20241;-91
2023/01/29 09:26:46;;;;;;;6.13;3.63;;;;;;;;;;5017496;28;20294;-91
2023/01/29 09:29:14;;;;;;;3.97;3.00;;;;;;;;;;5017149;28;20261;-90
2023/01/29 09:31:43;;;;;;;4.53;3.40;;;;;;;;;;5034417;28;20222;-89
2023/01/29 09:34:11;;;;;;;5.00;3.23;;;;;;;;;;5016766;28;20203;-90
2023/01/29 09:36:41;;;;;;;3.03;2.73;;;;;;;;;;5017062;28;20207;-90
2023/01/29 09:39:10;;;;;;;5.70;3.70;;;;;;;;;;5017382;28;20203;-90
2023/01/29 09:41:44;;;;;;;9.20;5.90;;;;;;;;;;5017334;28;20222;-91
2023/01/29 09:44:16;;;;;;;15.70;4.63;;;;;;;;;;5016885;28;20194;-90
2023/01/29 09:46:46;;;;;;;3.60;2.67;;;;;;;;;;5016941;28;20207;-90
2023/01/29 09:49:16;;;;;;;4.40;2.97;;;;;;;;;;5017202;28;20222;-90
2023/01/29 09:51:49;;;;;;;3.43;3.00;;;;;;;;;;5016664;28;20206;-90
2023/01/29 09:54:23;;;;;;;2.63;1.80;;;;;;;;;;5034163;28;20203;-91
2023/01/29 09:56:53;;;;;;;2.97;1.97;;;;;;;;;;5016869;28;20207;-90
2023/01/29 09:59:22;;;;;;;5.40;3.67;;;;;;;;;;5016450;28;20226;-90
2023/01/29 10:01:56;;;;;;;3.43;3.13;;;;;;;;;;5016704;28;20199;-90
2023/01/29 10:04:36;;;;;;;6.30;4.03;;;;;;;;;;5016446;28;20204;-90
2023/01/29 10:07:12;;;;;;;7.23;3.03;;;;;;;;;;5016347;28;20190;-90
2023/01/29 10:09:54;;;;;;;7.17;5.00;;;;;;;;;;5016342;28;20285;-90
2023/01/29 10:12:31;;;;;;;6.03;2.53;;;;;;;;;;5016537;28;20207;-90
2023/01/29 10:15:03;;;;;;;3.67;3.30;;;;;;;;;;5016609;28;20198;-90
2023/01/29 10:17:45;;;;;;;6.30;3.47;;;;;;;;;;5016428;28;20270;-91
2023/01/29 10:20:27;;;;;;;5.10;3.80;;;;;;;;;;5016944;28;20270;-90
2023/01/29 10:23:05;;;;;;;2.33;2.10;;;;;;;;;;5017731;28;20199;-90
2023/01/29 10:25:37;;;;;;;2.47;2.13;;;;;;;;;;5016933;28;20202;-90
2023/01/29 10:28:15;;;;;;;1.80;1.70;;;;;;;;;;5017440;28;20239;-90
2023/01/29 10:30:46;;;;;;;4.03;2.77;;;;;;;;;;5032941;28;20222;-90
2023/01/29 10:33:18;;;;;;;2.10;1.93;;;;;;;;;;5033912;28;20222;-91
2023/01/29 10:35:51;;;;;;;2.80;2.37;;;;;;;;;;5016323;28;20275;-90
2023/01/29 10:38:37;;;;;;;8.47;4.77;;;;;;;;;;5016585;28;20198;-90
2023/01/29 10:41:15;;;;;;;3.47;3.17;;;;;;;;;;5016334;28;20230;-90
2023/01/29 10:43:49;;;;;;;2.10;1.77;;;;;;;;;;5033829;28;20221;-90
2023/01/29 10:46:21;;;;;;;4.50;3.20;;;;;;;;;;5033082;28;20205;-90
2023/01/29 10:48:55;;;;;;;3.10;2.13;;;;;;;;;;5015717;28;20255;-90
2023/01/29 10:51:34;;;;;;;2.93;2.13;;;;;;;;;;5033730;28;20218;-90
2023/01/29 10:54:12;;;;;;;1.67;1.57;;;;;;;;;;5033060;28;20253;-90
2023/01/29 10:56:52;;;;;;;1.67;1.57;;;;;;;;;;5036896;28;20202;-90
2023/01/29 10:59:31;;;;;;;4.70;3.40;;;;;;;;;;5017987;28;20509;-90
2023/01/29 11:02:02;;;;;;;6.73;6.03;;;;;;;;;;5034177;28;20219;-90
2023/01/29 11:04:31;;;;;;;4.53;3.77;;;;;;;;;;5033574;28;20295;-90
2023/01/29 11:07:00;;;;;;;2.87;2.67;;;;;;;;;;5034904;28;20215;-90
2023/01/29 11:09:33;;;;;;;3.30;2.90;;;;;;;;;;5036871;28;20215;-90
2023/01/29 11:12:03;;;;;;;3.07;2.83;;;;;;;;;;5019625;28;20273;-90
2023/01/29 11:14:37;;;;;;;4.60;3.70;;;;;;;;;;5019534;28;20215;-89
2023/01/29 11:17:05;;;;;;;3.73;3.43;;;;;;;;;;5036796;28;20259;-91
2023/01/29 11:19:38;;;;;;;6.40;3.33;;;;;;;;;;5019578;28;20290;-91
2023/01/29 11:22:12;;;;;;;5.60;4.20;;;;;;;;;;5019368;28;20203;-91
2023/01/29 11:24:42;;;;;;;3.17;2.63;;;;;;;;;;5036790;28;20235;-90
2023/01/29 11:27:22;;;;;;;4.07;3.37;;;;;;;;;;5019557;28;20206;-90
2023/01/29 11:29:51;;;;;;;3.40;3.10;;;;;;;;;;5036434;28;20210;-90
2023/01/29 11:32:25;;;;;;;7.80;3.27;;;;;;;;;;5018988;28;20199;-90
2023/01/29 11:34:58;;;;;;;3.97;3.27;;;;;;;;;;5019588;28;20203;-90
2023/01/29 11:37:32;;;;;;;6.23;3.53;;;;;;;;;;5019603;28;20199;-90
2023/01/29 11:40:03;;;;;;;2.57;2.23;;;;;;;;;;5019315;28;20207;-90
2023/01/29 11:42:33;;;;;;;4.27;3.77;;;;;;;;;;5035488;28;20263;-90
2023/01/29 11:45:02;;;;;;;3.93;3.00;;;;;;;;;;5018583;28;20208;-91
2023/01/29 11:47:30;;;;;;;3.53;3.13;;;;;;;;;;5018721;28;20207;-90
2023/01/29 11:50:01;;;;;;;3.00;2.73;;;;;;;;;;5018651;28;20226;-91
2023/01/29 11:52:35;;;;;;;5.37;3.60;;;;;;;;;;5036802;28;20196;-90
2023/01/29 11:55:07;;;;;;;7.77;3.90;;;;;;;;;;5019182;28;20253;-90
2023/01/29 11:57:37;;;;;;;4.30;3.87;;;;;;;;;;5018893;28;20297;-90
2023/01/29 12:00:07;;;;;;;7.87;2.07;;;;;;;;;;5018337;28;20203;-90
2023/01/29 12:02:37;;;;;;;7.23;3.07;;;;;;;;;;5018969;28;20290;-90
2023/01/29 12:05:07;;;;;;;2.37;2.17;;;;;;;;;;5018430;28;20203;-91
2023/01/29 12:07:41;;;;;;;4.67;3.07;;;;;;;;;;5018482;28;20242;-90
2023/01/29 12:10:30;;;;;;;5.17;3.73;;;;;;;;;;5018554;28;20225;-90
2023/01/29 12:13:04;;;;;;;3.83;3.40;;;;;;;;;;5036187;28;20227;-91
2023/01/29 12:15:33;;;;;;;2.57;2.33;;;;;;;;;;5018540;28;20298;-90
2023/01/29 12:18:12;;;;;;;3.63;2.30;;;;;;;;;;5035309;28;20206;-90
2023/01/29 12:20:42;;;;;;;4.57;4.07;;;;;;;;;;5018047;28;20258;-90
2023/01/29 12:23:22;;;;;;;5.27;3.07;;;;;;;;;;5018329;28;20198;-90
2023/01/29 12:25:56;;;;;;;6.73;3.50;;;;;;;;;;5018246;28;20203;-90
2023/01/29 12:28:30;;;;;;;6.80;5.17;;;;;;;;;;5018275;28;20253;-90
2023/01/29 12:31:06;;;;;;;4.30;3.53;;;;;;;;;;5018117;28;20206;-91
2023/01/29 12:33:39;;;;;;;8.73;4.87;;;;;;;;;;5035893;28;20207;-90
2023/01/29 12:36:12;;;;;;;4.47;2.97;;;;;;;;;;5018451;28;20210;-90
2023/01/29 12:38:41;;;;;;;6.37;4.50;;;;;;;;;;5018050;28;20202;-90
2023/01/29 12:41:16;;;;;;;6.90;4.27;;;;;;;;;;5017788;28;20202;-90
2023/01/29 12:43:48;;;;;;;5.73;4.43;;;;;;;;;;5035482;28;20206;-90
2023/01/29 12:46:25;;;;;;;8.43;4.00;;;;;;;;;;5017967;28;20300;-90
2023/01/29 12:48:55;;;;;;;7.07;2.57;;;;;;;;;;5018214;28;20226;-91
2023/01/29 12:51:24;;;;;;;10.90;4.53;;;;;;;;;;5017650;28;20254;-90
2023/01/29 12:53:56;;;;;;;6.10;4.67;;;;;;;;;;5035209;28;20206;-90
2023/01/29 12:56:29;;;;;;;5.80;3.17;;;;;;;;;;5017488;28;20211;-91
2023/01/29 12:59:00;;;;;;;8.17;4.03;;;;;;;;;;5034298;28;20200;-90
2023/01/29 13:01:30;;;;;;;4.57;4.10;;;;;;;;;;5018121;28;20200;-90
2023/01/29 13:04:00;;;;;;;6.07;4.07;;;;;;;;;;5034943;28;20291;-89
2023/01/29 13:06:32;;;;;;;6.07;3.83;;;;;;;;;;5035296;28;20256;-90
2023/01/29 13:09:02;;;;;;;11.27;6.37;;;;;;;;;;5017971;28;20243;-89
2023/01/29 13:11:34;;;;;;;3.83;3.40;;;;;;;;;;5017557;28;20238;-90
2023/01/29 13:14:06;;;;;;;8.93;6.20;;;;;;;;;;5034528;28;20208;-90
2023/01/29 13:16:38;;;;;;;11.63;8.20;;;;;;;;;;5034664;28;20287;-90
2023/01/29 13:19:10;;;;;;;9.90;6.20;;;;;;;;;;5016815;28;20211;-90
2023/01/29 13:21:42;;;;;;;9.13;4.57;;;;;;;;;;5034757;28;20195;-90
2023/01/29 13:24:12;;;;;;;6.80;4.57;;;;;;;;;;5017244;28;20294;-90
2023/01/29 13:26:45;;;;;;;7.57;5.90;;;;;;;;;;5017086;28;20203;-89
2023/01/29 13:29:21;;;;;;;14.47;7.57;;;;;;;;;;5034244;28;20206;-90
2023/01/29 13:31:50;;;;;;;12.97;5.90;;;;;;;;;;5016736;28;20210;-89
2023/01/29 13:34:22;;;;;;;9.97;5.63;;;;;;;;;;5016965;28;20203;-90
2023/01/29 13:36:52;;;;;;;7.03;4.97;;;;;;;;;;5016974;28;20248;-90
2023/01/29 13:39:23;;;;;;;4.20;3.77;;;;;;;;;;5016625;28;20204;-90
2023/01/29 13:41:54;;;;;;;10.40;5.30;;;;;;;;;;5017023;28;20191;-90
2023/01/29 13:44:24;;;;;;;5.30;4.20;;;;;;;;;;5016654;28;20194;-90
2023/01/29 13:46:54;;;;;;;10.13;6.77;;;;;;;;;;5016612;28;20234;-90
2023/01/29 13:49:28;;;;;;;5.20;4.67;;;;;;;;;;5016813;28;20191;-90
2023/01/29 13:51:57;;;;;;;12.63;5.70;;;;;;;;;;5016938;28;20229;-90
2023/01/29 13:54:27;;;;;;;10.70;5.90;;;;;;;;;;5016711;28;20195;-89
2023/01/29 13:57:01;;;;;;;12.13;7.33;;;;;;;;;;5016536;28;20299;-90
2023/01/29 13:59:51;;;;;;;13.13;6.67;;;;;;;;;;5016792;28;20198;-90
2023/01/29 14:02:21;;;;;;;7.87;5.77;;;;;;;;;;5031309;28;20234;-90
2023/01/29 14:04:49;;;;;;;5.67;4.53;;;;;;;;;;5033827;28;20197;-90
2023/01/29 14:07:36;;;;;;;10.57;4.53;;;;;;;;;;5032981;28;20242;-90
2023/01/29 14:10:14;;;;;;;12.50;4.77;;;;;;;;;;5033919;28;20204;-90
2023/01/29 14:12:45;;;;;;;8.83;4.57;;;;;;;;;;5033663;28;20218;-91
2023/01/29 14:15:20;;;;;;;6.73;4.33;;;;;;;;;;5032809;28;20195;-90
2023/01/29 14:18:10;;;;;;;5.30;4.70;;;;;;;;;;5016528;28;20209;-90
2023/01/29 14:20:40;;;;;;;13.20;6.87;;;;;;;;;;5013286;28;20213;-90
2023/01/29 14:23:21;;;;;;;8.47;6.27;;;;;;;;;;5016074;28;20286;-90
2023/01/29 14:25:50;;;;;;;6.47;4.33;;;;;;;;;;5033748;28;20217;-90
2023/01/29 14:28:23;;;;;;;9.17;5.57;;;;;;;;;;5016111;28;20215;-90
2023/01/29 14:30:52;;;;;;;16.87;4.87;;;;;;;;;;5016082;28;20245;-90
2023/01/29 14:33:25;;;;;;;7.77;5.37;;;;;;;;;;5016326;28;20261;-89
2023/01/29 14:35:55;;;;;;;5.57;4.60;;;;;;;;;;5016304;28;20199;-90
2023/01/29 14:38:24;;;;;;;10.90;6.43;;;;;;;;;;5033724;28;20222;-90
2023/01/29 14:41:02;;;;;;;14.77;8.37;;;;;;;;;;5016298;28;20253;-90
2023/01/29 14:43:32;;;;;;;7.60;5.07;;;;;;;;;;5020154;28;20298;-90
2023/01/29 14:46:15;;;;;;;13.43;8.00;;;;;;;;;;5036519;28;20214;-90
2023/01/29 14:48:47;;;;;;;10.77;4.57;;;;;;;;;;5019667;28;20299;-90
2023/01/29 14:51:17;;;;;;;16.83;6.70;;;;;;;;;;5019899;28;20314;-90
2023/01/29 14:53:59;;;;;;;7.40;5.50;;;;;;;;;;5019870;28;20290;-90
2023/01/29 14:56:29;;;;;;;9.00;4.67;;;;;;;;;;5019762;28;20272;-90
2023/01/29 14:59:04;;;;;;;6.23;4.03;;;;;;;;;;5020063;28;20204;-90
2023/01/29 15:01:36;;;;;;;10.63;4.93;;;;;;;;;;5019949;28;20194;-90
2023/01/29 15:04:05;;;;;;;13.83;7.13;;;;;;;;;;5019859;28;20254;-90
2023/01/29 15:06:37;;;;;;;14.23;4.43;;;;;;;;;;5019437;28;20199;-90
2023/01/29 15:09:11;;;;;;;11.50;5.43;;;;;;;;;;5019473;28;20230;-89
2023/01/29 15:11:44;;;;;;;13.40;6.97;;;;;;;;;;5019578;28;20221;-87
2023/01/29 15:14:22;;;;;;;18.70;9.70;;;;;;;;;;5019913;28;20203;-90
2023/01/29 15:16:57;;;;;;;10.73;5.70;;;;;;;;;;5037041;28;20288;-90
2023/01/29 15:19:28;;;;;;;9.43;6.20;;;;;;;;;;5019512;28;20326;-89
2023/01/29 15:22:04;;;;;;;5.73;4.87;;;;;;;;;;5019254;28;20205;-89
2023/01/29 15:24:32;;;;;;;8.93;5.23;;;;;;;;;;5019118;28;20190;-89
2023/01/29 15:27:01;;;;;;;6.40;3.40;;;;;;;;;;5019431;28;20214;-89
2023/01/29 15:29:31;;;;;;;3.33;2.50;;;;;;;;;;5019417;28;20200;-90
2023/01/29 15:31:59;;;;;;;9.17;4.73;;;;;;;;;;5036621;28;20246;-90